Tiempo atmosférico en la estación meteorológica de Baza, Granada (801 m.)

Fecha
DESCASC
Temp. máxima en grados centígrados (hora)
DESCASC
Temp. mínima en grados centígrados (hora)
DESCASC
Temp. media en grados centígrados
DESCASC
Racha de viento máxima en m/sg (hora)
DESCASC
Velocidad máxima media en intervalos de 10 minutos(hora)
DESCASC
Precipitaciones diarias en mm
DESCASC
Precipitaciones de 00:00 a 06:00 en mm
DESCASC
Precipitaciones de 06:00 a 12:00 en mm
DESCASC
Precipitaciones de 12:00 a 18:00 en mm
DESCASC
Precipitaciones de 18:00 a 24:00 en mm
DESCASC
17-09-2017 28.5 (17:20) 4.9 (08:20) 16.7 7.78 (19:20) 4.72 (19:20) 0 0 0 0 0
16-09-2017 25.8 (15:30) 8.2 (08:20) 17 11.39 (15:10) 6.67 (14:20) 0 0 0 0 0
15-09-2017 29.9 (15:30) 18 (07:50) 23.9 13.89 (16:10) 8.61 (15:50) 0 0 0 0 0
14-09-2017 31.8 (16:00) 10 (00:00) 20.9 9.17 (14:30) 5.56 (17:50) 0 0 0 0 0
13-09-2017 32.7 (16:20) 13.7 (00:00) 23.2 10 (18:40) 6.11 (18:50) 0 0 0 0 0
12-09-2017 32.9 (15:30) 11.3 (00:00) 22.1 10.28 (16:30) 5.83 (16:20) 0 0 0 0 0
11-09-2017 31.5 (17:40) 8.1 (00:00) 19.8 9.72 (17:50) 5.83 (16:40) 0 0 0 0 0
10-09-2017 25.5 (17:20) 14.8 (00:00) 20.2 12.78 (00:40) 7.5 (00:40) 0 0 0 0 0
09-09-2017 29.5 (15:40) 13.6 (00:00) 21.6 13.89 (21:50) 8.33 (21:50) 0 0 0 0 0
08-09-2017 33.6 (16:30) 13.2 (00:00) 23.4 9.17 (15:30) 5.28 (18:40) 0 0 0 0 0
07-09-2017 33.3 (16:30) 14.2 (00:00) 23.7 12.22 (15:40) 5.83 (17:40) 0 0 0 0 0
06-09-2017 34.5 (16:40) 12.9 (00:00) 23.7 10 (19:00) 5.83 (19:00) 0 0 0 0 0
05-09-2017 33 (16:00) 13.4 (00:00) 23.2 10 (20:10) 5.83 (20:10) 0 0 0 0 0
04-09-2017 32.1 (16:00) 14.6 (00:00) 23.3 11.67 (14:00) 5.56 (16:40) 0 0 0 0 0
03-09-2017 32 (17:50) 14.2 (00:00) 23.1 10 (16:20) 5.83 (15:50) 0 0 0 0 0
02-09-2017 31.7 (16:40) 17.3 (00:00) 24.5 10 (20:20) 6.11 (19:40) 0 0 0 0 0
01-09-2017 31.9 (15:50) 13.8 (00:00) 22.8 10 (19:30) 6.11 (19:30) 0.2 0 0.2 0 0
31-08-2017 31.3 (16:00) 14.2 (00:00) 22.7 8.33 (19:10) 5 (20:00) 0 0 0 0 0
30-08-2017 25.1 (18:40) 14.9 (00:00) 20 6.94 (14:50) 4.17 (14:50) 0 0 0 0 0
29-08-2017 21.3 (14:50) 15.1 (00:00) 18.2 10 (16:40) 5.28 (17:10) 0.2 0.2 0 0 0
28-08-2017 26.5 (18:00) 17.8 (00:00) 22.1 10.83 (13:20) 6.39 (15:10) 0.2 0.2 0 0 0
27-08-2017 31.9 (15:10) 18.8 (00:00) 25.3 13.89 (16:40) 9.72 (16:50) 2.8 0 0 0.4 2.4
26-08-2017 37.2 (15:00) 19.7 (00:00) 28.5 9.17 (16:30) 5.56 (16:30) 6.4 0 0 1.4 5
25-08-2017 36.5 (14:20) 15.2 (00:00) 25.8 13.06 (17:30) 7.5 (14:50) 0 0 0 0 0
24-08-2017 38.4 (16:30) 13.8 (00:00) 26.1 10.28 (17:40) 6.39 (18:30) 0 0 0 0 0
23-08-2017 37.6 (15:40) 15.3 (00:00) 26.4 10 (15:00) 5.83 (18:20) 0 0 0 0 0
22-08-2017 36.5 (16:30) 16 (00:00) 26.3 9.44 (19:30) 5.83 (19:30) 0 0 0 0 0

Gráficas

Temp. máximas Temp. mínimas Temp. medias Precipitaciones Rachas de viento máximas Velocidades máximas media en intervalos de 10 minutos

Datos horarios

Fecha y hora oficial Temperatura (ºC) Velocidad del viento (km/h) Dirección del viento Racha (km/h) Dirección de racha Precipitación (mm) Presión (hPa) Tendencia (hPa) Humedad (%)
2017-09-20 23:00:00 17.2 11 Sudeste 19 Sudeste 0 929.7 1.3 71
2017-09-20 22:00:00 18.3 9 Sudeste 27 Sudeste 0 929.4 1.2 68
2017-09-20 21:00:00 19.8 17 Sudeste 32 Sur 0 928.6 0.6 61
2017-09-20 20:00:00 22.5 17 Sudeste 30 Sudeste 0 928.4 0 51
2017-09-20 19:00:00 26.5 16 Sudeste 28 Sudeste 0 928.2 -0.7 39
2017-09-20 18:00:00 28.7 14 Sudeste 25 Sudeste 0 928 -1.4 31
2017-09-20 17:00:00 30.1 10 Sudeste 22 Sudeste 0 928.4 -1.6 26
2017-09-20 16:00:00 29.8 11 Sur 24 Sudeste 0 928.9 -1.7 26
2017-09-20 15:00:00 28 7 Nordeste 17 Noroeste 0 929.4 -1.7 21
2017-09-20 14:00:00 27.7 4 Norte 12 Este 0 930 -1.5 24
2017-09-20 13:00:00 25.1 3 Nordeste 10 Norte 0 930.6 -0.9 34
2017-09-20 12:00:00 21 5 Norte 11 Norte 0 931.1 -0.5 41
2017-09-20 11:00:00 16.2 3 Noroeste 8 Oeste 0 931.5 0 59
2017-09-20 10:00:00 12.3 2 Norte 5 Noroeste 0 931.5 0.2 75
2017-09-20 09:00:00 9.2 3 Sur 6 Oeste 0 931.6 0.2 86
2017-09-20 08:00:00 7.7 4 Sudeste 6 Sudeste 0 931.5 0 82
2017-09-20 07:00:00 8.6 3 Sudoeste 6 Sur 0 931.3 -0.4 82
2017-09-20 06:00:00 8.8 4 Sudeste 9 Sudeste 0 931.4 -0.5 78
2017-09-20 05:00:00 9.5 6 Sur 11 Sudeste 0 931.5 -0.4 75
2017-09-20 04:00:00 10.7 5 Sudeste 10 Sudeste 0 931.7 -0.3 74
2017-09-20 03:00:00 12.2 8 Sur 9 Sur 0 931.9 0 76
2017-09-20 02:00:00 13.7 7 Este 10 Sudeste 0 931.9 0.1 81
2017-09-20 01:00:00 15.7 4 Este 17 Sudeste 0 932 0.4 78
2017-09-20 00:00:00 16.8 10 Sudeste 23 Sudeste 0 931.9 0.9 74
2017-09-19 23:00:00 17.8 13 Sudeste 25 Sudeste 0 931.8 1.5 67
2017-09-19 22:00:00 19.1 14 Sudeste 25 Sudeste 0 931.6 1.5 59
2017-09-19 21:00:00 20.8 13 Sur 22 Sur 0 931 0.9 53
2017-09-19 20:00:00 24.9 4 Oeste 24 Noroeste 0 930.3 0 21
2017-09-19 19:00:00 26.6 15 Oeste 25 Noroeste 0 930.1 -0.7 20
2017-09-19 18:00:00 27.5 16 Noroeste 27 Noroeste 0 930.1 -1.4 20
2017-09-19 17:00:00 28.4 10 Noroeste 23 Oeste 0 930.3 -1.7 17
2017-09-19 16:00:00 27.3 14 Oeste 29 Noroeste 0 930.8 -1.9 19
2017-09-19 15:00:00 26.4 15 Noroeste 30 Oeste 0 931.5 -1.5 20
2017-09-19 14:00:00 25 18 Oeste 29 Oeste 0 932 -1 24
2017-09-19 13:00:00 23.8 10 Noroeste 18 Norte 0 932.7 -0.3 29
2017-09-19 12:00:00 20.7 8 Norte 14 Norte 0 933 0.4 38
2017-09-19 11:00:00 16.4 3 Noroeste 7 Noroeste 0 933 0.9 48
2017-09-19 10:00:00 12.9 3 Oeste 6 Sudoeste 0 933 1.4 57
2017-09-19 09:00:00 9.2 2 Sur 8 Sudeste 0 932.6 1 77
2017-09-19 08:00:00 7.6 6 Sudeste 9 Sudeste 0 932.1 0.8 79
2017-09-19 07:00:00 8.7 4 Sur 7 Sur 0 931.6 0.1 74
2017-09-19 06:00:00 10 3 Sur 8 Sudeste 0 931.6 -0.1 67
2017-09-19 05:00:00 12.1 4 Oeste 10 Sudeste 0 931.3 -0.7 58
2017-09-19 04:00:00 12 7 Este 11 Este 0 931.5 -0.4 58
2017-09-19 03:00:00 13 5 Sudeste 9 Sudeste 0 931.7 -0.1 56
2017-09-19 02:00:00 15.3 4 Sur 15 Oeste 0 932 0.3 48
2017-09-19 01:00:00 17.8 8 Sudoeste 17 Oeste 0 931.9 0.7 40
2017-09-19 00:00:00 18.6 11 Oeste 15 Oeste 0 931.8 1.4 38
2017-09-18 23:00:00 17.5 2 Sudoeste 7 Oeste 0 931.7 2.1 40
2017-09-18 22:00:00 20 5 Sudoeste 17 Oeste 0 931.2 2.1 34
2017-09-18 21:00:00 21.8 11 Noroeste 29 Noroeste 0 930.4 1.6 30
2017-09-18 20:00:00 23.2 16 Noroeste 35 Noroeste 0 929.6 0.8 26
2017-09-18 19:00:00 24.8 20 Noroeste 33 Noroeste 0 929.1 0 23
2017-09-18 18:00:00 25.9 20 Noroeste 36 Noroeste 0 928.8 -0.7 20
2017-09-18 17:00:00 26.2 22 Noroeste 37 Noroeste 0 928.8 -1.1 14
2017-09-18 16:00:00 25.8 19 Noroeste 35 Noroeste 0 929.1 -1 17
2017-09-18 15:00:00 25.3 19 Noroeste 33 Oeste 0 929.5 -0.6 19
2017-09-18 14:00:00 24.6 17 Noroeste 31 Noroeste 0 929.9 0.1 21
2017-09-18 13:00:00 22.7 22 Noroeste 37 Noroeste 0 930.1 0.3 23
2017-09-18 12:00:00 21.4 22 Oeste 35 Oeste 0 930.1 0.6 28
2017-09-18 11:00:00 19.3 15 Oeste 24 Noroeste 0 929.8 0.4 32
2017-09-18 10:00:00 14.5 5 Norte 15 Norte 0 929.8 0.9 45
2017-09-18 09:00:00 10.2 3 Sudoeste 11 Sudeste 0 929.5 0.6 63
2017-09-18 08:00:00 8.5 9 Sur 12 Sudeste 0 929.4 0.4 64
2017-09-18 07:00:00 9.9 5 Sur 8 Sur 0 928.9 -0.1 60
2017-09-18 06:00:00 12.3 2 Sur 9 Nordeste 0 928.9 -0.3 50
2017-09-18 05:00:00 14.3 4 Norte 13 Norte 0 929 -0.1 43
2017-09-18 04:00:00 14.2 9 Oeste 16 Oeste 0 929 -0.4 40
2017-09-18 03:00:00 13 2 Oeste 10 Sudeste 0 929.2 -0.5 47
2017-09-18 02:00:00 12.8 6 Sur 11 Sudeste 0 929.1 -0.3 49
2017-09-18 01:00:00 12.6 10 Sudeste 12 Sudeste 0 929.4 0.2 51
2017-09-18 00:00:00 13.5 8 Sur 12 Sur 0 929.7 1.2 43
2017-09-17 23:00:00 15.3 8 Sur 11 Sur 0 929.4 1.6 38
2017-09-17 22:00:00 18.2 9 Sudeste 17 Oeste 0 929.2 2 31
2017-09-17 21:00:00 21.5 12 Oeste 20 Noroeste 0 928.5 1.5 24
2017-09-17 20:00:00 23.8 13 Oeste 28 Oeste 0 927.8 0.7 21
2017-09-17 19:00:00 26 16 Oeste 24 Noroeste 0 927.2 -0.4 16
2017-09-17 18:00:00 27.8 13 Noroeste 24 Noroeste 0 927 -1.4 13
2017-09-17 17:00:00 28.3 8 Noroeste 21 Noroeste 0 927.1 -2.1 14
2017-09-17 16:00:00 27.2 10 Nordeste 20 Noroeste 0 927.6 -2.2 14
2017-09-17 15:00:00 25.7 12 Noroeste 21 Oeste 0 928.4 -1.7 15
2017-09-17 14:00:00 24.6 8 Noroeste 15 Norte 0 929.2 -1 19
2017-09-17 13:00:00 22.9 7 Noroeste 15 Noroeste 0 929.8 -0.2 23
2017-09-17 12:00:00 18.8 6 Noroeste 13 Noroeste 0 930.1 0.6 30
2017-09-17 11:00:00 14.1 4 Noroeste 10 Oeste 0 930.2 1.1 42
2017-09-17 10:00:00 10.5 5 Noroeste 8 Noroeste 0 930 1.5 50
2017-09-17 09:00:00 6.8 3 Oeste 7 Sudeste 0 929.5 1.3 63
2017-09-17 08:00:00 5.2 3 Oeste 8 Sur 0 929.1 1.2 73
2017-09-17 07:00:00 5.8 4 Sur 8 Sur 0 928.5 0.7 69
2017-09-17 06:00:00 5.9 6 Sur 9 Sudeste 0 928.2 0.3 68
2017-09-17 05:00:00 7.1 5 Sur 6 Sudeste 0 927.9 0.1 60
2017-09-17 04:00:00 9.7 4 Sudoeste 10 Oeste 0 927.8 -0.1 44
2017-09-17 03:00:00 9.8 3 Oeste 10 Sudeste 0 927.9 -0.1 47
2017-09-17 02:00:00 10.9 8 Sudeste 13 Sudeste 0 927.8 0.1 42
2017-09-17 01:00:00 11.3 9 Sudeste 14 Sudeste 0 927.9 0.8 40
2017-09-17 00:00:00 11.8 8 Sudeste 13 Sudeste 0 928 1.8 38
2017-09-16 23:00:00 13.5 6 Sur 11 Oeste 0 927.7 2.5 34
2017-09-16 22:00:00 17.7 8 Sudoeste 13 Oeste 0 927.1 2.6 23
2017-09-16 21:00:00 19.4 8 Noroeste 20 Noroeste 0 926.2 2.4 20
2017-09-16 20:00:00 20.9 14 Noroeste 27 Noroeste 0 925.2 1.7 19
2017-09-16 19:00:00 23.4 16 Oeste 30 Oeste 0 924.5 1.1 17
2017-09-16 18:00:00 24.8 16 Noroeste 33 Noroeste 0 923.8 0.2 16
2017-09-16 17:00:00 25.2 15 Noroeste 37 Oeste 0 923.5 -0.4 17
2017-09-16 16:00:00 25.6 17 Noroeste 41 Oeste 0 923.4 -1 15
2017-09-16 15:00:00 25.3 22 Oeste 40 Oeste 0 923.6 -1.3 13
2017-09-16 14:00:00 23.6 21 Oeste 37 Oeste 0 923.9 -0.8 17
2017-09-16 13:00:00 22.2 16 Oeste 31 Noroeste 0 924.4 -0.3 23
2017-09-16 12:00:00 19.8 8 Nordeste 16 Noroeste 0 924.9 0.7 36
2017-09-16 11:00:00 16.3 3 Noroeste 9 Noroeste 0 924.7 1.1 42
2017-09-16 10:00:00 13.2 5 Noroeste 9 Norte 0 924.7 1.7 50
2017-09-16 09:00:00 9 3 Sur 9 Sudeste 0 924.2 1.3 64
2017-09-16 08:00:00 8.7 6 Sur 8 Oeste 0 923.6 0.9 61
2017-09-16 07:00:00 10.8 4 Oeste 8 Oeste 0 923 0.1 49
2017-09-16 06:00:00 11.9 4 Oeste 12 Sur 0 922.9 -0.2 46
2017-09-16 05:00:00 11.5 6 Sur 10 Sur 0 922.7 -0.4 48
2017-09-16 04:00:00 11.7 6 Sur 13 Sudeste 0 922.9 -0.3 39
2017-09-16 03:00:00 11.8 8 Sudeste 13 Sudeste 0 923.1 0 36
2017-09-16 02:00:00 13.3 6 Sudeste 11 Sudeste 0 923.1 -0.1 34
2017-09-16 01:00:00 15.2 5 Sudeste 10 Sudeste 0 923.2 -0.3 29
2017-09-16 00:00:00 18.9 8 Oeste 21 Oeste 0 923.1 0.6 23
2017-09-15 23:00:00 19 13 Oeste 18 Oeste 0 923.2 1.1 18
2017-09-15 22:00:00 20.3 6 Oeste 20 Oeste 0 923.5 2 18
2017-09-15 21:00:00 21.8 12 Oeste 18 Oeste 0 922.5 1.5 15
2017-09-15 20:00:00 24.4 10 Noroeste 30 Noroeste 0 922.1 1.1 12
2017-09-15 19:00:00 26.8 17 Noroeste 34 Noroeste 0 921.5 0.5 10
2017-09-15 18:00:00 28.1 17 Noroeste 33 Oeste 0 921 -0.6 15
2017-09-15 17:00:00 28.6 18 Noroeste 50 Oeste 0 921 -1.3 22
2017-09-15 16:00:00 29.4 26 Oeste 48 Oeste 0 921 -1.8 15
2017-09-15 15:00:00 29.1 27 Oeste 46 Oeste 0 921.6 -2.2 17
2017-09-15 14:00:00 29.4 26 Oeste 41 Noroeste 0 922.3 -2.1 13
2017-09-15 13:00:00 28.1 20 Oeste 35 Oeste 0 922.8 -1.3 17
2017-09-15 12:00:00 24.2 5 Noroeste 19 Noroeste 0 923.8 -0.3 30
2017-09-15 11:00:00 21.7 9 Noroeste 17 Oeste 0 924.4 0.3 34
2017-09-15 10:00:00 18.9 5 Norte 17 Norte 0 924.1 0 43
2017-09-15 09:00:00 19.3 7 Oeste 12 Oeste 0 924.1 -0.2 40
2017-09-15 08:00:00 18.2 8 Noroeste 12 Oeste 0 924.1 -0.6 43
2017-09-15 07:00:00 19.1 9 Noroeste 15 Oeste 0 924.1 -0.9 38
2017-09-15 06:00:00 19.3 9 Oeste 12 Noroeste 0 924.3 -1.3 37
2017-09-15 05:00:00 19.9 6 Oeste 15 Oeste 0 924.7 -1.3 34
2017-09-15 04:00:00 20.4 8 Sudoeste 12 Sudoeste 0 925 -1.4 32
2017-09-15 03:00:00 21.3 8 Sudoeste 13 Sudoeste 0 925.6 -1.5 31
2017-09-15 02:00:00 23.5 6 Sudoeste 15 Sudoeste 0 926 -1.3 26
2017-09-15 01:00:00 23.1 3 Oeste 14 Sur 0 926.4 -0.9 28
2017-09-15 00:00:00 22.6 6 Sudeste 12 Norte 0 927.1 -0.4 28
2017-09-14 23:00:00 22.4 3 Noroeste 10 Sur 0 927.3 0.5 29
2017-09-14 22:00:00 24.3 5 Sur 13 Oeste 0 927.3 0.8 24
2017-09-14 21:00:00 26.2 6 Oeste 22 Noroeste 0 927.5 0.9 20
2017-09-14 20:00:00 28.3 14 Oeste 28 Oeste 0 926.8 -0.4 17
2017-09-14 19:00:00 29.1 17 Noroeste 30 Noroeste 0 926.5 -1.3 18
2017-09-14 18:00:00 31.5 18 Noroeste 33 Noroeste 0 926.6 -2.1 19
2017-09-14 17:00:00 31.4 16 Noroeste 31 Noroeste 0 927.2 -2.1 19
2017-09-14 16:00:00 31.8 16 Noroeste 31 Noroeste 0 927.8 -2.5 19
2017-09-14 15:00:00 30.7 17 Noroeste 33 Noroeste 0 928.7 -2.4 19
2017-09-14 14:00:00 29.9 18 Noroeste 31 Noroeste 0 929.3 -2.2 20
2017-09-14 13:00:00 27.9 15 Oeste 27 Oeste 0 930.3 -1.2 25
2017-09-14 12:00:00 24.9 9 Noroeste 18 Oeste 0 931.1 -0.3 32
2017-09-14 11:00:00 18.5 3 Norte 8 Noroeste 0 931.5 0.3 47
2017-09-14 10:00:00 14.8 3 Este 5 Sudeste 0 931.5 0.5 61
2017-09-14 09:00:00 12.1 5 Oeste 8 Oeste 0 931.4 0.2 67
2017-09-14 08:00:00 10 3 Sudoeste 5 Sudeste 0 931.2 -0.3 78
2017-09-14 07:00:00 10.7 2 Sur 10 Sur 0 931 -0.6 76
2017-09-14 06:00:00 10.4 7 Sudeste 12 Sudeste 0 931.2 -0.7 77
2017-09-14 05:00:00 11.1 7 Sur 8 Sudeste 0 931.5 -0.7 76
2017-09-14 04:00:00 12.1 4 Sudeste 8 Sudeste 0 931.6 -0.6 69
2017-09-14 03:00:00 13.2 9 Sudeste 9 Sudeste 0 931.9 -0.6 66
2017-09-14 02:00:00 15 7 Sur 10 Sudeste 0 932.2 -0.5 59
2017-09-14 01:00:00 16.8 9 Sudeste 14 Sudeste 0 932.2 -0.3 56
2017-09-14 00:00:00 18.4 8 Sudeste 18 Sudeste 0 932.5 0.7 50
2017-09-13 23:00:00 19.3 9 Sudeste 16 Este 0 932.7 1.4 45
2017-09-13 22:00:00 20.7 10 Sudeste 26 Sur 0 932.5 1.4 38
2017-09-13 21:00:00 22.5 13 Sur 29 Sudeste 0 931.8 0.5 34
2017-09-13 20:00:00 25.2 19 Sudeste 33 Sudeste 0 931.3 -0.4 28
2017-09-13 19:00:00 28.2 20 Sudeste 36 Sudeste 0 931.1 -1 24
2017-09-13 18:00:00 30.5 21 Sudeste 33 Sudeste 0 931.3 -1.4 22
2017-09-13 17:00:00 32.2 15 Sudeste 28 Sudeste 0 931.7 -1.6 21
2017-09-13 16:00:00 32.2 17 Sudeste 28 Sudeste 0 932.1 -1.8 21
2017-09-13 15:00:00 31.2 16 Sudeste 28 Sudeste 0 932.7 -1.5 24
2017-09-13 14:00:00 29.7 14 Sudeste 28 Sudeste 0 933.3 -0.8 28
2017-09-13 13:00:00 27.3 16 Sudeste 26 Sudeste 0 933.9 0.1 33
2017-09-13 12:00:00 25.3 12 Sudeste 23 Sudeste 0 934.2 0.6 40
2017-09-13 11:00:00 21.7 15 Sudeste 25 Sudeste 0 934.1 0.9 52
2017-09-13 10:00:00 18.6 13 Sudeste 22 Sudeste 0 933.8 1.2 74
2017-09-13 09:00:00 14.1 4 Sudeste 6 Sudeste 0 933.6 1.4 89
2017-09-13 08:00:00 14.1 3 Noroeste 10 Sur 0 933.2 0.9 92
2017-09-13 07:00:00 15 8 Sur 10 Sur 0 932.6 0 91
2017-09-13 06:00:00 15 6 Sur 12 Sudeste 0 932.2 -0.3 89
2017-09-13 05:00:00 15.9 9 Sur 12 Sur 0 932.3 -0.3 91
2017-09-13 04:00:00 16.9 5 Sudeste 12 Este 0 932.6 0.1 91
2017-09-13 03:00:00 17.6 5 Este 15 Sudeste 0 932.5 0.6 88
2017-09-13 02:00:00 18.4 10 Sudeste 22 Sudeste 0 932.6 1.1 86
2017-09-13 01:00:00 18.6 9 Sudeste 18 Sudeste 0 932.5 2 87
2017-09-13 00:00:00 19 12 Sudeste 18 Sudeste 0 931.9 2.3 84
2017-09-12 23:00:00 19.7 8 Sudeste 22 Sudeste 0 931.5 2.8 80
2017-09-12 22:00:00 20.2 12 Sudeste 22 Sudeste 0 930.5 2.6 77
2017-09-12 21:00:00 21.5 14 Sudeste 31 Sudeste 0 929.6 2.2 71
2017-09-12 20:00:00 24.9 15 Sudeste 32 Sudeste 0 928.7 1.4 57
2017-09-12 19:00:00 30.7 18 Noroeste 30 Noroeste 0 927.9 0.5 10
2017-09-12 18:00:00 31.9 19 Noroeste 32 Oeste 0 927.4 0 10
2017-09-12 17:00:00 32.1 18 Noroeste 37 Oeste 0 927.3 -0.5 11
2017-09-12 16:00:00 32.4 20 Noroeste 37 Oeste 0 927.4 -0.6 11
2017-09-12 15:00:00 32.3 18 Noroeste 31 Noroeste 0 927.4 -0.9 12
2017-09-12 14:00:00 31.4 15 Noroeste 28 Noroeste 0 927.8 -0.4 12
2017-09-12 13:00:00 29.5 15 Noroeste 26 Noroeste 0 928 0 19
2017-09-12 12:00:00 25.9 8 Norte 16 Norte 0 928.3 0.7 27
2017-09-12 11:00:00 20.2 2 Noroeste 8 Noroeste 0 928.2 1.1 37
2017-09-12 10:00:00 16.7 5 Noroeste 12 Norte 0 928 1.6 45
2017-09-12 09:00:00 13.5 4 Sudoeste 9 Sudeste 0 927.6 1.3 57
2017-09-12 08:00:00 12 3 Oeste 10 Sur 0 927.1 0.8 59
2017-09-12 07:00:00 13 7 Noroeste 14 Norte 0 926.4 0 54
2017-09-12 06:00:00 13.7 6 Sur 14 Norte 0 926.3 -0.3 52
2017-09-12 05:00:00 15.4 3 Norte 12 Sudeste 0 926.3 -0.3 48
2017-09-12 04:00:00 15.8 7 Sudeste 11 Sudeste 0 926.4 -0.4 45
2017-09-12 03:00:00 16 10 Sudeste 14 Sudeste 0 926.6 0 44
2017-09-12 02:00:00 16.9 8 Sudeste 12 Sudeste 0 926.6 0.3 40
2017-09-12 01:00:00 18 7 Sudeste 11 Sudeste 0 926.8 0.9 37
2017-09-12 00:00:00 20 8 Sur 14 Sudeste 0 926.6 1.3 30
2017-09-11 23:00:00 21.8 6 Sur 16 Oeste 0 926.3 1.5 27
2017-09-11 22:00:00 24.6 10 Oeste 16 Oeste 0 925.9 1.3 21
2017-09-11 21:00:00 26.2 11 Oeste 19 Oeste 0 925.3 0.6 20
2017-09-11 20:00:00 28.8 13 Oeste 28 Oeste 0 924.8 0 20
2017-09-11 19:00:00 30.3 16 Oeste 31 Noroeste 0 924.6 -0.7 19
2017-09-11 18:00:00 31.1 17 Oeste 35 Oeste 0 924.7 -1.3 17
2017-09-11 17:00:00 31.3 19 Oeste 32 Noroeste 0 924.8 -1.7 17
2017-09-11 16:00:00 31.1 15 Oeste 29 Noroeste 0 925.3 -2 16
2017-09-11 15:00:00 30.1 16 Oeste 27 Oeste 0 926 -1.6 17
2017-09-11 14:00:00 28.4 15 Noroeste 28 Noroeste 0 926.5 -1 15
2017-09-11 13:00:00 26.4 10 Noroeste -- -- -- 927.3 -0.2 18
2017-09-11 12:00:00 21.7 5 Noroeste 10 Norte 0 927.6 0.5 26
2017-09-11 11:00:00 17.4 2 Norte 6 Noroeste 0 927.5 0.7 32
2017-09-11 10:00:00 13.4 2 Norte 9 Noroeste 0 927.5 1.1 41
2017-09-11 09:00:00 9.6 2 Sudeste 10 Sur 0 927.1 0.8 64
2017-09-11 08:00:00 8.5 3 Sur 7 Sudeste 0 926.8 0.2 63
2017-09-11 07:00:00 10.4 4 Noroeste 9 Noroeste 0 926.4 -0.4 49
2017-09-11 06:00:00 10.3 3 Noroeste 9 Sudeste 0 926.3 -0.8 52
2017-09-11 05:00:00 10.8 6 Sudeste 10 Sur 0 926.6 -0.8 48
2017-09-11 04:00:00 11.7 8 Sudeste 14 Sur 0 926.8 -0.5 47
2017-09-11 03:00:00 13.2 5 Sudeste 13 Oeste 0 927.1 -0.4 43
2017-09-11 02:00:00 12.6 7 Sudeste 11 Este 0 927.4 0 43
2017-09-11 01:00:00 14.3 6 Sudeste 10 Sudeste 0 927.3 0.6 40
2017-09-11 00:00:00 16.2 4 Sur 16 Sudoeste 0 927.5 2 33
2017-09-10 23:00:00 19.7 7 Oeste 22 Oeste 0 927.4 2.4 25
2017-09-10 22:00:00 20.5 8 Oeste 18 Oeste 0 926.7 2.2 22
2017-09-10 21:00:00 21.3 14 Oeste 27 Oeste 0 925.5 1.3 21
2017-09-10 20:00:00 23.3 20 Oeste 31 Oeste 0 925 0.7 18
2017-09-10 19:00:00 24.5 20 Oeste 35 Oeste 0 924.5 -0.2 17
2017-09-10 18:00:00 24.9 21 Oeste 39 Oeste 0 924.2 -0.9 16
2017-09-10 17:00:00 24.9 22 Oeste 40 Noroeste 0 924.3 -1.2 14
2017-09-10 16:00:00 24.3 24 Oeste 40 Noroeste 0 924.7 -1 14
2017-09-10 15:00:00 23.4 23 Oeste 39 Oeste 0 925.1 -0.4 18
2017-09-10 14:00:00 22.6 23 Oeste 40 Noroeste 0 925.5 0.2 21
2017-09-10 13:00:00 21.2 21 Oeste 37 Oeste 0 925.7 0.8 25
2017-09-10 12:00:00 19.8 18 Oeste 30 Oeste 0 925.5 1.3 27
2017-09-10 11:00:00 17.6 17 Oeste 30 Oeste 0 925.3 2.2 32
2017-09-10 10:00:00 16.1 19 Oeste 32 Oeste 0 924.9 2.4 34
2017-09-10 09:00:00 15.1 18 Oeste 33 Oeste 0 924.2 2.1 36
2017-09-10 08:00:00 15 22 Oeste 35 Oeste 0 923.1 1.3 36
2017-09-10 07:00:00 15 17 Oeste 26 Oeste 0 922.5 1 35
2017-09-10 06:00:00 15.7 18 Oeste 26 Oeste 0 922.1 0.8 32
2017-09-10 05:00:00 16.5 15 Oeste 27 Noroeste 0 921.8 0.9 36
2017-09-10 04:00:00 18 15 Oeste 35 Oeste 0 921.5 0.8 34
2017-09-10 03:00:00 19 17 Noroeste 39 Noroeste 0 921.3 0.8 32
2017-09-10 02:00:00 19.9 24 Noroeste 39 Noroeste 0 920.9 0.1 30
2017-09-10 01:00:00 20.6 21 Noroeste 46 Noroeste 0 920.7 0.7 33
2017-09-10 00:00:00 21.3 23 Oeste 40 Oeste 0 920.5 1.2 43
2017-09-09 23:00:00 21.8 20 Oeste 44 Oeste 0 920.8 1.8 38
2017-09-09 22:00:00 22.1 27 Oeste 50 Oeste 0 920 1.2 38
2017-09-09 21:00:00 22.7 23 Oeste 41 Oeste 0 919.3 0.5 33
2017-09-09 20:00:00 23.4 26 Noroeste 46 Noroeste 0 919 -0.4 30
2017-09-09 19:00:00 26 23 Noroeste 48 Oeste 0 918.8 -0.5 24
2017-09-09 18:00:00 28.2 20 Noroeste 43 Noroeste 0 918.8 -1 17
2017-09-09 17:00:00 27 21 Noroeste 40 Noroeste 0 919.4 -1 19
2017-09-09 16:00:00 29.1 22 Noroeste 41 Noroeste 0 919.3 -1.7 14
2017-09-09 15:00:00 28.1 22 Oeste 35 Oeste 0 919.8 -1.9 15
2017-09-09 14:00:00 27.1 19 Oeste 38 Oeste 0 920.4 -1.6 12
2017-09-09 13:00:00 26.1 21 Oeste 42 Oeste 0 921 -1.1 12
2017-09-09 12:00:00 23.9 18 Oeste 30 Oeste 0 921.7 -0.3 21
2017-09-09 11:00:00 22.3 16 Oeste 27 Oeste 0 922 0 26
2017-09-09 10:00:00 16.6 3 Este 10 Sur 0 922.1 -0.2 55
2017-09-09 09:00:00 13.6 6 Sudeste 10 Sur 0 922 -0.4 59
2017-09-09 08:00:00 13.7 8 Sur 12 Sur 0 922 -0.3 54
2017-09-09 07:00:00 15.8 7 Sur 19 Oeste 0 922.3 -0.8 48
2017-09-09 06:00:00 17.2 8 Noroeste 17 Noroeste 0 922.4 -1.3 42
2017-09-09 05:00:00 16.3 5 Oeste 12 Sur 0 922.3 -2.2 47
2017-09-09 04:00:00 16.5 3 Este 9 Sudeste 0 923.1 -1.8 48
2017-09-09 03:00:00 17.1 5 Sur 12 Sudeste 0 923.7 -1.2 48
2017-09-09 02:00:00 22.4 7 Sudoeste 17 Oeste 0 924.5 -0.3 33
2017-09-09 01:00:00 24 12 Oeste 20 Oeste 0 924.9 0.4 26
2017-09-09 00:00:00 24.4 14 Oeste 24 Oeste 0 924.9 0.9 26
2017-09-08 23:00:00 21.2 8 Sur 13 Sudeste 0 924.8 1.2 60
2017-09-08 22:00:00 23.5 8 Sudeste 13 Sudeste 0 924.5 0.9 59
2017-09-08 21:00:00 27.7 8 Oeste 19 Oeste 0 924 0.3 23
2017-09-08 20:00:00 30 13 Oeste 27 Oeste 0 923.6 -0.4 22
2017-09-08 19:00:00 31.5 15 Oeste 29 Noroeste 0 923.6 -0.9 21
2017-09-08 18:00:00 32.4 14 Noroeste 31 Oeste 0 923.7 -1.5 19
2017-09-08 17:00:00 33.1 12 Noroeste 30 Noroeste 0 924 -1.9 18
2017-09-08 16:00:00 33.3 12 Noroeste 33 Oeste 0 924.5 -2.1 17
2017-09-08 15:00:00 32.1 16 Noroeste 31 Noroeste 0 925.2 -2.2 18
2017-09-08 14:00:00 31.3 17 Noroeste 30 Noroeste 0 925.9 -1.8 19
2017-09-08 13:00:00 28.5 8 Norte 14 Norte 0 926.6 -1 32
2017-09-08 12:00:00 24.2 0 Calma 7 Noroeste 0 927.4 0 47
2017-09-08 11:00:00 19.8 3 Norte 8 Norte 0 927.7 0.5 73
2017-09-08 10:00:00 17.1 4 Norte 8 Noroeste 0 927.6 0.5 84
2017-09-08 09:00:00 13.7 3 Sur 6 Sudeste 0 927.4 0.1 89
2017-09-08 08:00:00 13.3 0 Calma 8 Sudeste 0 927.2 -0.4 85
2017-09-08 07:00:00 13.6 6 Sudeste 9 Sudeste 0 927.1 -0.7 83
2017-09-08 06:00:00 14.5 7 Sudeste 10 Sudeste 0 927.3 -0.8 82
2017-09-08 05:00:00 14.9 8 Sudeste 11 Sudeste 0 927.6 -0.7 84
2017-09-08 04:00:00 15.6 9 Sur 12 Sudeste 0 927.8 -0.6 89
2017-09-08 03:00:00 17.1 5 Este 8 Este 0 928.1 -0.6 87
2017-09-08 02:00:00 18.1 4 Este 11 Este 0 928.3 -0.1 86
2017-09-08 01:00:00 18.9 6 Este 12 Sudeste 0 928.4 0.5 87
2017-09-08 00:00:00 19.6 3 Este 17 Sudeste 0 928.7 1.8 83
2017-09-07 23:00:00 20.3 10 Sudeste 23 Sudeste 0 928.4 2.3 80
2017-09-07 22:00:00 20.9 15 Sudeste 28 Sudeste 0 927.9 2.1 79
2017-09-07 21:00:00 22.6 16 Sudeste 33 Sudeste 0 926.9 0.8 69
2017-09-07 20:00:00 26.6 18 Sudeste 33 Sudeste 0 926.1 -0.3 50
2017-09-07 19:00:00 31.3 15 Oeste 30 Oeste 0 925.8 -1.1 17
2017-09-07 18:00:00 32 18 Oeste 32 Oeste 0 926.1 -1.3 19
2017-09-07 17:00:00 32.7 18 Oeste 34 Oeste 0 926.4 -1.6 19
2017-09-07 16:00:00 32.4 12 Noroeste 44 Oeste 0 926.9 -1.7 21
2017-09-07 15:00:00 31.4 6 Sudoeste 21 Sudoeste 0 927.4 -1.8 25
2017-09-07 14:00:00 31 8 Sudeste 22 Este 0 928 -1.5 28
2017-09-07 13:00:00 28.9 5 Sudeste 19 Sudeste 0 928.6 -0.6 32
2017-09-07 12:00:00 25.8 8 Sudeste 16 Sudeste 0 929.2 0.2 39
2017-09-07 11:00:00 20.7 4 Norte 9 Norte 0 929.5 0.5 58
2017-09-07 10:00:00 17.9 4 Norte 7 Norte 0 929.2 0.3 68
2017-09-07 09:00:00 15.1 5 Sur 10 Sur 0 929 0.1 81
2017-09-07 08:00:00 14.4 7 Sudeste 8 Sudeste 0 929 -0.1 81
2017-09-07 07:00:00 15.9 4 Sur 8 Sur 0 928.9 -0.7 77
2017-09-07 06:00:00 16.5 6 Este 17 Este 0 928.9 -1.1 74
2017-09-07 05:00:00 16 4 Este 9 Sudeste 0 929.1 -1.5 71
2017-09-07 04:00:00 16.9 5 Sudeste 10 Sur 0 929.6 -1 65
2017-09-07 03:00:00 17.4 5 Sudeste 11 Sudeste 0 930 -0.9 61
2017-09-07 02:00:00 18.4 7 Sur 10 Sur 0 930.6 -0.1 56
2017-09-07 01:00:00 19.8 8 Sur 14 Sur 0 930.6 0.2 50
2017-09-07 00:00:00 20.3 8 Sudeste 15 Sudeste 0 930.9 1.2 48
2017-09-06 23:00:00 21.5 11 Sudeste 24 Sudeste 0 930.7 1.6 46
2017-09-06 22:00:00 22.5 13 Sur 28 Sudeste 0 930.4 1.7 45
2017-09-06 21:00:00 24.1 12 Sur 28 Sudeste 0 929.7 1.1 40
2017-09-06 20:00:00 26.7 17 Sudeste 36 Sudeste 0 929.1 -0.1 38
2017-09-06 19:00:00 29.7 21 Sudeste 36 Sudeste 0 928.7 -1.3 31
2017-09-06 18:00:00 32.4 19 Sudeste 33 Sudeste 0 928.6 -1.9 25
2017-09-06 17:00:00 34.1 17 Sudeste 35 Este 0 929.2 -2.2 22
2017-09-06 16:00:00 33.3 5 Noroeste 19 Este 0 930 -2.1 20
2017-09-06 15:00:00 32.8 6 Sudeste 17 Este 0 930.5 -2.1 22
2017-09-06 14:00:00 31.4 6 Sudoeste 13 Sur 0 931.4 -1.4 23
2017-09-06 13:00:00 28.5 3 Sur 8 Oeste 0 932.1 -0.8 30
2017-09-06 12:00:00 24.9 3 Norte 8 Norte 0 932.6 -0.2 40
2017-09-06 11:00:00 20.5 3 Noroeste 9 Norte 0 932.8 0 52
2017-09-06 10:00:00 17.7 4 Noroeste 7 Noroeste 0 932.9 0.5 63
2017-09-06 09:00:00 14.1 3 Sudeste 8 Sur 0 932.8 0.2 85
2017-09-06 08:00:00 13 6 Sudeste 8 Sudeste 0 932.8 0.3 84
2017-09-06 07:00:00 13.7 4 Sur 6 Sudeste 0 932.4 -0.4 81
2017-09-06 06:00:00 14.9 0 Calma 7 Sur 0 932.6 -0.7 73
2017-09-06 05:00:00 15.5 7 Sudeste 9 Sudeste 0 932.5 -1.2 70
2017-09-06 04:00:00 16.3 4 Sur 10 Sudeste 0 932.8 -1.1 68
2017-09-06 03:00:00 17.1 9 Sudeste 11 Sudeste 0 933.3 -0.6 65
2017-09-06 02:00:00 18.6 7 Sur 13 Sur 0 933.7 0.3 60
2017-09-06 01:00:00 19.2 4 Sudeste 11 Sudeste 0 933.9 1 59
2017-09-06 00:00:00 20.5 6 Sudeste 17 Sudeste 0 933.9 1.9 51
2017-09-05 23:00:00 21.4 10 Sudeste 18 Sur 0 933.4 2.1 48
2017-09-05 22:00:00 22.7 11 Sur 23 Sudeste 0 932.9 1.9 41
2017-09-05 21:00:00 24.4 12 Sur 36 Sudeste 0 932 0.9 39
2017-09-05 20:00:00 27.8 14 Sudeste 33 Sudeste 0 931.3 0 30
2017-09-05 19:00:00 30.4 17 Sudeste 31 Sudeste 0 931 -0.6 27
2017-09-05 18:00:00 32 15 Sudeste 29 Sudeste 0 931.1 -0.9 25
2017-09-05 17:00:00 32.9 15 Sudeste 28 Sudeste 0 931.3 -1 24
2017-09-05 16:00:00 33 8 Sur 26 Sudeste 0 931.6 -1.4 24
2017-09-05 15:00:00 31.8 14 Sur 30 Sudeste 0 932 -1.4 27
2017-09-05 14:00:00 31.3 18 Sudeste 29 Sudeste 0 932.3 -1 26
2017-09-05 13:00:00 28.4 5 Sudeste 15 Sudoeste 0 933 0 38
2017-09-05 12:00:00 24.8 5 Nordeste 13 Nordeste 0 933.4 0.7 53
2017-09-05 11:00:00 21.7 5 Norte 13 Sudeste 0 933.3 1.3 69
2017-09-05 10:00:00 18.9 7 Sudeste 14 Sudeste 0 933 1.3 84
2017-09-05 09:00:00 15.7 6 Sudeste 13 Sur 0 932.7 1.2 90
2017-09-05 08:00:00 13.4 5 Sur 10 Sur 0 932 0.7 78
2017-09-05 07:00:00 14.5 6 Sudeste 10 Sudeste 0 931.7 0.4 87
2017-09-05 06:00:00 15.7 7 Sudeste 11 Sudeste 0 931.5 0.2 89
2017-09-05 05:00:00 16.8 6 Sur 13 Sudeste 0 931.3 0.1 82
2017-09-05 04:00:00 18.5 9 Sudeste 19 Sur 0 931.3 0.5 87
2017-09-05 03:00:00 18.5 9 Sur 18 Sudeste 0 931.3 0.8 76
2017-09-05 02:00:00 19.1 7 Este 11 Este 0 931.2 1.3 62
2017-09-05 01:00:00 20.4 2 Nordeste 15 Sur 0 930.8 1.6 54
2017-09-05 00:00:00 22.3 9 Sudeste 28 Sudeste 0 930.5 2.5 51
2017-09-04 23:00:00 22.5 9 Sudeste 20 Sur 0 929.9 2.5 52
2017-09-04 22:00:00 24.1 15 Sur 30 Sudeste 0 929.2 2.4 46
2017-09-04 21:00:00 26.9 10 Oeste 20 Oeste 0 928 1.5 20
2017-09-04 20:00:00 29.8 12 Oeste 23 Oeste 0 927.4 1 14
2017-09-04 19:00:00 30.8 15 Oeste 28 Oeste 0 926.8 0.3 12
2017-09-04 18:00:00 31.3 18 Noroeste 31 Noroeste 0 926.5 0 14
2017-09-04 17:00:00 31.5 16 Noroeste 35 Oeste 0 926.4 -0.3 16
2017-09-04 16:00:00 31.8 13 Oeste 30 Noroeste 0 926.5 -0.6 14
2017-09-04 15:00:00 31.4 15 Noroeste 36 Noroeste 0 926.5 -0.9 17
2017-09-04 14:00:00 30.3 16 Noroeste 42 Noroeste 0 926.7 -0.8 17
2017-09-04 13:00:00 29.3 13 Noroeste 27 Noroeste 0 927.1 0 22
2017-09-04 12:00:00 27.1 15 Noroeste 28 Noroeste 0 927.4 0.6 26
2017-09-04 11:00:00 22.3 7 Norte 12 Norte 0 927.5 0.9 51
2017-09-04 10:00:00 19.3 8 Norte 13 Norte 0 927.1 0.8 60
2017-09-04 09:00:00 16.2 2 Sudeste 12 Sudeste 0 926.8 0.5 77
2017-09-04 08:00:00 14.6 7 Este 10 Este 0 926.6 0.2 79
2017-09-04 07:00:00 15.3 4 Sur 10 Sudeste 0 926.3 0 77
2017-09-04 06:00:00 15.4 7 Sudeste 11 Sudeste 0 926.3 -0.2 76
2017-09-04 05:00:00 16 8 Sudeste 9 Sudeste 0 926.4 -0.4 72
2017-09-04 04:00:00 17.2 8 Sur 10 Sudeste 0 926.3 -0.5 65
2017-09-04 03:00:00 18.6 8 Sudeste 10 Sudeste 0 926.5 -0.4 59
2017-09-04 02:00:00 19.6 4 Este 13 Este 0 926.8 -0.2 55
2017-09-04 01:00:00 22 5 Sudeste 12 Sudeste 0 926.8 0.1 46
2017-09-04 00:00:00 22.8 5 Sur 17 Oeste 0 926.9 0.8 43
2017-09-03 23:00:00 25.2 8 Oeste 14 Oeste 0 927 1.1 33
2017-09-03 22:00:00 26 8 Oeste 16 Oeste 0 926.7 1.1 32
2017-09-03 21:00:00 27.3 12 Oeste 21 Oeste 0 926.1 0.7 30
2017-09-03 20:00:00 28.9 13 Oeste 28 Noroeste 0 925.9 0.2 29
2017-09-03 19:00:00 30.5 14 Noroeste 28 Noroeste 0 925.6 -0.7 28
2017-09-03 18:00:00 31.7 14 Oeste 32 Noroeste 0 925.4 -1.9 26
2017-09-03 17:00:00 31.3 15 Oeste 36 Noroeste 0 925.7 -2.4 27
2017-09-03 16:00:00 30.7 19 Noroeste 33 Noroeste 0 926.3 -2.6 28
2017-09-03 15:00:00 30 11 Noroeste 21 Noroeste 0 927.3 -2.3 31
2017-09-03 14:00:00 28.9 5 Oeste 15 Norte 0 928.1 -1.6 36
2017-09-03 13:00:00 26.3 5 Noroeste 14 Noroeste 0 928.9 -0.9 50
2017-09-03 12:00:00 23.5 4 Norte 12 Noroeste 0 929.6 -0.4 61
2017-09-03 11:00:00 20.1 3 Noroeste 9 Noroeste 0 929.7 -0.2 77
2017-09-03 10:00:00 17.5 2 Norte 5 Nordeste 0 929.8 -0.1 92
2017-09-03 09:00:00 15.2 2 Sudeste 5 Sudeste 0 930 0.1 94
2017-09-03 08:00:00 14.2 5 Sur 6 Sudeste 0 929.9 -0.2 92
2017-09-03 07:00:00 15 3 Sudoeste 6 Sudeste 0 929.9 -0.7 93
2017-09-03 06:00:00 15.6 2 Norte 6 Sudeste 0 929.9 -1.2 93
2017-09-03 05:00:00 15.9 6 Sudeste 9 Sudeste 0 930.1 -1.4 93
2017-09-03 04:00:00 16.4 7 Sudeste 8 Sudeste 0 930.6 -1.1 92
2017-09-03 03:00:00 17.2 5 Sudeste 10 Sur 0 931.1 -0.7 90
2017-09-03 02:00:00 18.1 5 Sur 11 Sudeste 0 931.5 -0.3 88
2017-09-03 01:00:00 18.7 7 Sudeste 18 Sudeste 0 931.7 0.4 86
2017-09-03 00:00:00 19.2 12 Sudeste 22 Sudeste 0 931.8 1.5 84
2017-09-02 23:00:00 19.8 13 Sudeste 22 Sudeste 0 931.8 2.3 82
2017-09-02 22:00:00 20.6 14 Sudeste 24 Sudeste 0 931.3 1.9 78
2017-09-02 21:00:00 21.8 16 Sudeste 36 Sudeste 0 930.3 1 71
2017-09-02 20:00:00 24.4 21 Sudeste 35 Sudeste 0 929.5 0 58
2017-09-02 19:00:00 27.6 19 Sudeste 32 Sudeste 0 929.4 -0.7 45
2017-09-02 18:00:00 30.1 18 Sudeste 30 Sudeste 0 929.3 -1.4 37
2017-09-02 17:00:00 31.5 10 Sudeste 20 Este 0 929.5 -2 31
2017-09-02 16:00:00 31 10 Sudeste 23 Sudeste 0 930.1 -2 31
2017-09-02 15:00:00 29.3 10 Sur 28 Sudeste 0 930.7 -1.6 37
2017-09-02 14:00:00 28.1 13 Sudeste 28 Sudeste 0 931.5 -0.8 40
2017-09-02 13:00:00 26.6 15 Sudeste 28 Sudeste 0 932.1 0.3 47
2017-09-02 12:00:00 23 20 Sudeste 31 Sudeste 0 932.3 1 65
2017-09-02 11:00:00 21.3 15 Sudeste 26 Sudeste 0 932.3 1.3 74
2017-09-02 10:00:00 19.8 12 Sudeste 21 Este 0 931.8 1.1 81
2017-09-02 09:00:00 18.4 10 Sudeste 16 Sudeste 0 931.3 0.8 87
2017-09-02 08:00:00 17.9 11 Sudeste 17 Este 0 931 0.5 89
2017-09-02 07:00:00 18.3 11 Sudeste 20 Sur 0 930.7 0.5 90
2017-09-02 06:00:00 18.3 8 Sudeste 13 Sur 0 930.5 0.1 89
2017-09-02 05:00:00 17.8 4 Este 8 Sur 0 930.5 0.2 89
2017-09-02 04:00:00 17.7 6 Sur 12 Sur 0 930.2 0 88
2017-09-02 03:00:00 18.2 7 Sudeste 19 Sudeste 0 930.4 0.4 87
2017-09-02 02:00:00 18.7 11 Sudeste 21 Sudeste 0 930.3 0.6 85
2017-09-02 01:00:00 19.1 12 Sudeste 23 Sudeste 0 930.2 1.2 83
2017-09-02 00:00:00 19.5 12 Sudeste 23 Sudeste 0 930 1.9 82
2017-09-01 23:00:00 20.1 11 Sur 27 Sudeste 0 929.7 2.5 79
2017-09-01 22:00:00 21 14 Sudeste 28 Sudeste 0 929 2.2 74
2017-09-01 21:00:00 22.2 14 Sudeste 35 Sudeste 0 928.1 1.5 70
2017-09-01 20:00:00 24.9 19 Sudeste 36 Sudeste 0 927.2 0.6 59
2017-09-01 19:00:00 27.9 21 Sudeste 35 Sudeste 0 926.8 -0.3 47
2017-09-01 18:00:00 30.4 17 Sudeste 31 Sudeste 0 926.6 -1.1 36
2017-09-01 17:00:00 31 14 Sudeste 26 Sudeste 0 926.6 -1.8 31
2017-09-01 16:00:00 31.5 15 Sudeste 24 Sudeste 0 927.1 -2.1 30
2017-09-01 15:00:00 31.1 10 Sudeste 26 Noroeste 0 927.7 -1.9 28
2017-09-01 14:00:00 29.7 6 Este 33 Sudeste 0 928.4 -1.1 30
2017-09-01 13:00:00 26.6 4 Sudeste 12 Este 0 929.2 -0.1 43
2017-09-01 12:00:00 23.4 3 Nordeste 9 Norte 0 929.6 0.3 55
2017-09-01 11:00:00 19.4 2 Noroeste 7 Norte 0 929.5 0.6 69
2017-09-01 10:00:00 16.8 2 Oeste 6 Sudoeste 0 929.3 0.7 85
2017-09-01 09:00:00 15.1 4 Oeste 6 Oeste 0 929.3 0.8 92
2017-09-01 08:00:00 13.9 2 Sudoeste 9 Sudeste 0 928.9 0.3 93
2017-09-01 07:00:00 14.3 8 Sudeste 10 Sudeste 0.2 928.6 -0.2 93
2017-09-01 06:00:00 14.9 6 Sudeste 9 Sudeste 0 928.5 -0.5 92
2017-09-01 05:00:00 15.7 4 Sudeste 8 Sudeste 0 928.6 -0.5 91
2017-09-01 04:00:00 16.5 4 Sudeste 11 Sudeste 0 928.8 -0.3 88
2017-09-01 03:00:00 17.3 3 Sudeste 11 Sudeste 0 929 0 84
2017-09-01 02:00:00 18.1 7 Sudeste 14 Sudeste 0 929.1 0.3 80
2017-09-01 01:00:00 18.7 8 Sudeste 19 Sur 0 929.1 1 77
2017-09-01 00:00:00 19.4 11 Sur 22 Sur 0 929 1.8 72
2017-08-31 23:00:00 20.4 15 Sur 24 Sudeste 0 928.8 2.2 68
2017-08-31 22:00:00 21.3 11 Sur 19 Sur 0 928.1 1.9 64
2017-08-31 21:00:00 23 11 Sudeste 26 Sudeste 0 927.2 1 54
2017-08-31 20:00:00 25.6 18 Sudeste 30 Sudeste 0 926.6 0.5 46
2017-08-31 19:00:00 28.3 14 Sudeste 27 Sudeste 0 926.2 -0.3 39
2017-08-31 18:00:00 28.9 14 Sudeste 29 Sudeste 0 926.2 -1 36
2017-08-31 17:00:00 29.7 9 Sur 21 Sudeste 0 926.1 -1.7 32
2017-08-31 16:00:00 30.9 12 Sudeste 22 Sudeste 0 926.5 -2 30
2017-08-31 15:00:00 30 8 Sudeste 16 Sudeste 0 927.2 -1.5 33
2017-08-31 14:00:00 27.4 7 Norte 17 Norte 0 927.8 -1 43
2017-08-31 13:00:00 25.4 7 Norte 17 Norte 0 928.5 -0.2 46
2017-08-31 12:00:00 22.7 4 Noroeste 12 Nordeste 0 928.7 0.3 54
2017-08-31 11:00:00 19.9 3 Este 8 Nordeste 0 928.8 0.7 68
2017-08-31 10:00:00 17.5 4 Norte 9 Norte 0 928.7 1 77
2017-08-31 09:00:00 15 2 Sudeste 6 Sur 0 928.4 1 91
2017-08-31 08:00:00 14.6 5 Sur 7 Oeste 0 928.1 1 89
2017-08-31 07:00:00 14.5 3 Sudoeste 9 Este 0 927.7 0.5 89
2017-08-31 06:00:00 14.3 5 Sur 10 Oeste 0 927.4 -0.3 89
2017-08-31 05:00:00 14.5 6 Sudeste 11 Sudeste 0 927.1 -0.8 88
2017-08-31 04:00:00 14.9 8 Sudeste 10 Sudeste 0 927.2 -0.4 91
2017-08-31 03:00:00 15.6 5 Este 10 Noroeste 0 927.7 -0.1 86
2017-08-31 02:00:00 15.6 6 Sur 13 Sudeste 0 927.9 0.3 85
2017-08-31 01:00:00 16 6 Sudeste 10 Sudeste 0 927.6 0.3 86
2017-08-31 00:00:00 16.9 6 Sudeste 10 Sudeste 0 927.8 1.2 87
2017-08-30 23:00:00 18 6 Sudeste 8 Sudeste 0 927.6 1 86
2017-08-30 22:00:00 19.3 6 Sur 8 Sur 0 927.3 0.7 81
2017-08-30 21:00:00 20.8 2 Sudeste 7 Norte 0 926.6 -0.1 70
2017-08-30 20:00:00 22.3 5 Noroeste 13 Noroeste 0 926.6 -0.4 56
2017-08-30 19:00:00 23.4 5 Norte 11 Sudeste 0 926.6 -0.7 55
2017-08-30 18:00:00 23.9 6 Este 12 Norte 0 926.7 -1.4 55
2017-08-30 17:00:00 22.9 3 Sudeste 15 Nordeste 0 927 -1.4 56
2017-08-30 16:00:00 20.9 6 Nordeste 17 Sudeste 0 927.3 -1.3 64
2017-08-30 15:00:00 17 13 Sudeste 25 Sudeste 0 928.1 -0.8 87
2017-08-30 14:00:00 15.9 4 Este 13 Este 0 928.4 -0.3 93
2017-08-30 13:00:00 15.4 4 Sudeste 11 Sur 0 928.6 0.8 93
2017-08-30 12:00:00 15.5 4 Este 7 Sur 0 928.9 1.4 92
2017-08-30 11:00:00 15.3 3 Sudeste 6 Oeste 0 928.7 1.5 91
2017-08-30 10:00:00 15.1 5 Oeste 8 Oeste 0 927.8 0.9 91
2017-08-30 09:00:00 15 2 Sur 6 Noroeste 0 927.5 1 91
2017-08-30 08:00:00 15 2 Este 5 Norte 0 927.2 0.8 91
2017-08-30 07:00:00 15 3 Sudoeste 7 Sudeste 0 926.9 -0.1 91
2017-08-30 06:00:00 14.9 2 Norte 7 Norte 0 926.5 -0.4 91
2017-08-30 05:00:00 15.4 4 Norte 8 Norte 0 926.4 -0.7 90
2017-08-30 04:00:00 15.4 2 Sudoeste 11 Sudeste 0 927 0 91
2017-08-30 03:00:00 15 6 Sudeste 16 Sudeste 0 926.9 -0.5 91
2017-08-30 02:00:00 15.1 8 Sudeste 14 Sudeste 0 927.1 0.1 89
2017-08-30 01:00:00 15.8 6 Sudeste 10 Sudeste 0 927 0.5 87
2017-08-30 00:00:00 16.6 4 Sur 8 Sudoeste 0 927.4 2 82
2017-08-29 23:00:00 17.2 2 Sudoeste 14 Sudeste 0 927 2.1 78
2017-08-29 22:00:00 17.7 13 Sudeste 30 Sudeste 0 926.5 1.7 72
2017-08-29 21:00:00 18 7 Sudoeste 18 Sur 0 925.4 0.5 81
2017-08-29 20:00:00 18.7 5 Sudeste 24 Sudeste 0 924.9 0.3 78
2017-08-29 19:00:00 19.4 13 Sur 28 Sudeste 0 924.8 -0.2 75
2017-08-29 18:00:00 18.5 13 Sudeste 35 Sudeste 0 924.9 -0.4 74
2017-08-29 17:00:00 17.1 14 Sudeste 36 Sudeste 0 924.6 -0.9 70
2017-08-29 16:00:00 18.5 11 Sudeste 21 Sudeste 0 925 -0.8 71
2017-08-29 15:00:00 21.2 9 Sudeste 17 Este 0 925.3 -1 63
2017-08-29 14:00:00 20.8 4 Norte 11 Noroeste 0 925.5 -1.1 72
2017-08-29 13:00:00 19.1 5 Norte 9 Noroeste 0 925.8 -0.4 80
2017-08-29 12:00:00 18 4 Noroeste 10 Norte 0 926.3 0.4 84
2017-08-29 11:00:00 17.6 5 Norte 13 Norte 0 926.6 1 86
2017-08-29 10:00:00 17.1 5 Norte 10 Norte 0 926.2 0.4 88
2017-08-29 09:00:00 16.2 4 Este 7 Nordeste 0 925.9 0.2 91
2017-08-29 08:00:00 15.2 3 Sur 8 Sudeste 0 925.6 -0.1 91
2017-08-29 07:00:00 15.5 3 Sudeste 8 Este 0 925.8 -0.1 91
2017-08-29 06:00:00 15.4 3 Noroeste 14 Norte 0 925.7 0 92
2017-08-29 05:00:00 15.5 5 Sudoeste 11 Sur 0 925.7 -0.7 90
2017-08-29 04:00:00 15.4 3 Sudoeste 12 Este 0.2 925.9 -0.2 91
2017-08-29 03:00:00 15.9 3 Oeste 9 Noroeste 0 925.7 -0.8 89
2017-08-29 02:00:00 16.2 3 Sur 10 Sudeste 0 926.4 -0.1 88
2017-08-29 01:00:00 17.6 3 Sur 13 Oeste 0 926.1 0 84
2017-08-29 00:00:00 18.8 9 Oeste 14 Oeste 0 926.5 0.9 80
2017-08-28 23:00:00 19.3 5 Oeste 17 Oeste 0 926.5 1.6 78
2017-08-28 22:00:00 20.2 6 Oeste 18 Oeste 0 926.1 0.7 73
2017-08-28 21:00:00 21.3 5 Noroeste 27 Sudeste 0 925.6 0.4 68
2017-08-28 20:00:00 23.7 22 Sudeste 35 Sudeste 0 924.9 -0.3 51
2017-08-28 19:00:00 23.8 12 Sur 27 Oeste 0 925.4 -0.5 53
2017-08-28 18:00:00 25.7 10 Sudoeste 23 Sur 0 925.2 -0.7 48
2017-08-28 17:00:00 25.7 12 Sur 29 Sur 0 925.2 -1.6 37
2017-08-28 16:00:00 25.5 12 Sudeste 35 Sudeste 0 925.9 -1.1 42
2017-08-28 15:00:00 25.4 21 Sudeste 37 Sudeste 0 925.9 -1.1 40
2017-08-28 14:00:00 23.6 19 Sudeste 39 Sudeste 0 926.8 -0.6 46
2017-08-28 13:00:00 23.7 21 Sur 37 Sudeste 0 927 -0.2 43
2017-08-28 12:00:00 23 18 Sudeste 34 Sur 0 927 0.6 45
2017-08-28 11:00:00 20.8 17 Sudeste 35 Sudeste 0 927.4 1.3 61
2017-08-28 10:00:00 18.8 3 Nordeste 11 Sur 0 927.2 1.1 88
2017-08-28 09:00:00 18.3 5 Sudoeste 9 Sudoeste 0 926.4 -0.2 86
2017-08-28 08:00:00 17.9 4 Oeste 16 Noroeste 0 926.1 -1.5 88
2017-08-28 07:00:00 18.5 7 Norte 11 Norte 0 926.1 -3.2 90
2017-08-28 06:00:00 19.1 8 Sudeste 15 Sudeste 0 926.6 -1.4 88
2017-08-28 05:00:00 19.7 6 Nordeste 25 Norte 0 927.6 -0.3 88
2017-08-28 04:00:00 20.6 4 Sudoeste 19 Sudeste 0 929.3 1 87
2017-08-28 03:00:00 20.2 12 Sudeste 21 Sudeste 0 928 -0.4 87
2017-08-28 02:00:00 20 10 Sudeste 17 Sudeste 0 927.9 -0.6 79
2017-08-28 01:00:00 19.8 4 Nordeste 12 Sudeste 0.2 928.3 0.5 79
2017-08-28 00:00:00 20.6 9 Sudeste 14 Sudeste 1 928.4 1 77
2017-08-27 23:00:00 20.4 3 Sudeste 9 Sur 0.4 928.5 1.3 76
2017-08-27 22:00:00 21.5 3 Sudoeste 11 Sudeste 0.2 927.8 0.2 72
2017-08-27 21:00:00 23.1 6 Sudeste 13 Sudeste 0.2 927.4 -0.4 61
2017-08-27 20:00:00 24.8 10 Sudeste 22 Sudeste 0.2 927.2 -1.6 58
2017-08-27 19:00:00 25.1 8 Sudeste 17 Oeste 0.4 927.6 0.2 61
2017-08-27 18:00:00 25 14 Oeste 33 Sudeste 0.2 927.8 0.4 55
2017-08-27 17:00:00 21.2 22 Sudoeste 50 Oeste 0.2 928.8 0.8 75
2017-08-27 16:00:00 28.7 21 Oeste 39 Oeste 0 927.4 -0.8 33
2017-08-27 15:00:00 31.6 5 Este 23 Oeste 0 927.4 -0.7 28
2017-08-27 14:00:00 29 12 Oeste 22 Noroeste 0 928 0 30
2017-08-27 13:00:00 27.2 13 Oeste 19 Oeste 0 928.2 0.6 40
2017-08-27 12:00:00 25.9 4 Norte 13 Nordeste 0 928.1 0.9 49
2017-08-27 11:00:00 24.3 10 Sudeste 23 Sur 0 928 1.1 53
2017-08-27 10:00:00 21 4 Sudoeste 10 Sudeste 0 927.6 0.7 78
2017-08-27 09:00:00 19.2 4 Sur 6 Sudeste 0 927.2 0 87
2017-08-27 08:00:00 18.9 2 Sur 6 Este 0 926.9 -0.6 85
2017-08-27 07:00:00 19.6 5 Sur 14 Sur 0 926.9 -0.9 81
2017-08-27 06:00:00 20.7 9 Sur 17 Sur 0 927.2 -0.8 77
2017-08-27 05:00:00 21.1 8 Sur 15 Sudoeste 0 927.5 -0.7 73
2017-08-27 04:00:00 21.2 7 Sudoeste 13 Sur 0 927.8 -0.5 77
2017-08-27 03:00:00 20.2 4 Sudoeste 10 Oeste 0 928 -0.6 72
2017-08-27 02:00:00 20 8 Oeste 16 Norte 0 928.2 -0.5 78
2017-08-27 01:00:00 19.6 6 Nordeste 15 Norte 0 928.3 0.2 79
2017-08-27 00:00:00 20.6 8 Sur 13 Sudoeste 0 928.6 2.3 75
2017-08-26 23:00:00 21.3 4 Este 18 Norte 0.2 928.7 2.4 72
2017-08-26 22:00:00 22.4 12 Sur 28 Sudeste 2.2 928.1 1.9 68
2017-08-26 21:00:00 21.2 17 Sudeste 31 Sudeste 2.6 926.3 -0.3 77
2017-08-26 20:00:00 26.8 14 Sudeste 27 Sudeste 0 926.3 -0.1 49
2017-08-26 19:00:00 27.8 4 Este 11 Sudeste 0 926.2 0.5 54
2017-08-26 18:00:00 27.5 4 Sudeste 14 Este 0.6 926.6 0.5 55
2017-08-26 17:00:00 26.5 12 Oeste 33 Oeste 0.8 926.4 -0.2 52
2017-08-26 16:00:00 33.8 17 Sudeste 27 Sudeste 0 925.7 -1.5 23
2017-08-26 15:00:00 36.9 17 Sudeste 29 Sudeste 0 926.1 -1.6 17
2017-08-26 14:00:00 35.3 16 Sur 26 Sur 0 926.6 -1.4 18
2017-08-26 13:00:00 33.4 6 Sudoeste 17 Sudeste 0 927.2 -0.9 22
2017-08-26 12:00:00 29.6 6 Sudeste 12 Sur 0 927.7 -0.3 29
2017-08-26 11:00:00 25.4 3 Noroeste 7 Norte 0 928 0.2 41
2017-08-26 10:00:00 22.3 3 Norte 8 Sudeste 0 928.1 0.5 51
2017-08-26 09:00:00 20.2 5 Sur 18 Sudeste 0 928 0.4 68
2017-08-26 08:00:00 19.7 9 Este 15 Sudeste 0 927.8 -0.4 70
2017-08-26 07:00:00 20.6 7 Sudeste 18 Sudeste 0 927.6 -0.8 67
2017-08-26 06:00:00 21.4 8 Sudeste 18 Sudeste 0 927.6 -0.9 61
2017-08-26 05:00:00 21.9 7 Sudeste 14 Sudeste 0 928.2 -0.8 57
2017-08-26 04:00:00 22.1 4 Sudeste 18 Sudeste 0 928.4 -0.6 53
2017-08-26 03:00:00 22.3 10 Sudeste 16 Este 0 928.5 -0.4 55
2017-08-26 02:00:00 21.5 5 Sudeste 9 Sudeste 0 929 0.3 56
2017-08-26 01:00:00 21.8 3 Este 15 Sudeste 0 929 0.3 54
2017-08-26 00:00:00 21.8 9 Sudeste 13 Sudeste 0 928.9 0.4 48
2017-08-25 23:00:00 23.1 9 Sudeste 14 Sudeste 0 928.7 0.3 46
2017-08-25 22:00:00 25.7 6 Sudeste 13 Sudoeste 0 928.7 1.2 38
2017-08-25 21:00:00 28.2 4 Noroeste 23 Nordeste 0 928.5 1.1 29
2017-08-25 20:00:00 29.1 12 Este 27 Este 0 928.4 1 28
2017-08-25 19:00:00 29.2 16 Sudeste 39 Sudeste 0 927.5 -0.1 30
2017-08-25 18:00:00 29.7 25 Sudeste 47 Sudoeste 0 927.4 -0.6 33
2017-08-25 17:00:00 30.7 12 Sudeste 32 Sudeste 0 927.4 -0.7 29
2017-08-25 16:00:00 32.9 21 Sudeste 42 Sudeste 0 927.6 -1 24
2017-08-25 15:00:00 33.4 24 Sudeste 44 Sudeste 0 928 -1.2 23
2017-08-25 14:00:00 35.2 5 Norte 13 Oeste 0 928.1 -1.4 16
2017-08-25 13:00:00 32.5 8 Noroeste 13 Noroeste 0 928.6 -0.9 23
2017-08-25 12:00:00 29.1 3 Norte 8 Sudeste 0 929.2 -0.2 29
2017-08-25 11:00:00 24.4 3 Sudoeste 11 Sur 0 929.5 0.2 41
2017-08-25 10:00:00 20.6 5 Sur 10 Sudoeste 0 929.5 0.7 52
2017-08-25 09:00:00 16.8 4 Sudeste 8 Este 0 929.4 0.6 64
2017-08-25 08:00:00 15.2 4 Oeste 6 Oeste 0 929.3 0.6 69
2017-08-25 07:00:00 16 3 Oeste 6 Sudeste 0 928.8 -0.4 62
2017-08-25 06:00:00 16.4 5 Sudeste 7 Sudeste 0 928.8 -0.7 58
2017-08-25 05:00:00 16.8 6 Sudeste 10 Sudeste 0 928.7 -1.2 58
2017-08-25 04:00:00 17.3 9 Sudeste 11 Sudeste 0 929.2 -0.7 58
2017-08-25 03:00:00 18.8 8 Sudeste 12 Sudeste 0 929.5 -0.2 59
2017-08-25 02:00:00 20.1 8 Sudeste 13 Sudeste 0 929.9 0.4 51
2017-08-25 01:00:00 21 9 Sudeste 13 Sudeste 0 929.9 0.9 43
2017-08-25 00:00:00 22.5 7 Sudeste 18 Sur 0 929.7 1.7 42
2017-08-24 23:00:00 23.6 9 Sudeste 19 Sudeste 0 929.5 2.2 42
2017-08-24 22:00:00 24.8 10 Sudeste 23 Sudeste 0 929 1.9 45
2017-08-24 21:00:00 26.5 17 Sudeste 32 Sudeste 0 928 1 39
2017-08-24 20:00:00 29.2 18 Sudeste 37 Sur 0 927.3 0.2 33
2017-08-24 19:00:00 32.3 21 Sudeste 35 Sudeste 0 927.1 -0.4 27
2017-08-24 18:00:00 35.4 22 Sudeste 37 Sudeste 0 927 -1 20
2017-08-24 17:00:00 37.5 19 Sudeste 32 Sudeste 0 927.1 -1.4 15
2017-08-24 16:00:00 38 8 Sur 20 Sudeste 0 927.5 -1.7 12
2017-08-24 15:00:00 36.3 5 Noroeste 17 Noroeste 0 928 -1.7 14
2017-08-24 14:00:00 34.8 5 Nordeste 14 Este 0 928.5 -1.4 17
2017-08-24 13:00:00 31.8 4 Sudoeste 9 Noroeste 0 929.2 -0.5 20
2017-08-24 12:00:00 27.8 3 Norte 9 Norte 0 929.7 0 24
2017-08-24 11:00:00 23.3 6 Norte 10 Norte 0 929.9 0.4 33
2017-08-24 10:00:00 19.6 4 Norte 7 Noroeste 0 929.7 0.6 44
2017-08-24 09:00:00 15.7 2 Sudeste 9 Sur 0 929.7 0.7 63
2017-08-24 08:00:00 13.9 8 Sudeste 9 Sudeste 0 929.5 0.6 65
2017-08-24 07:00:00 14.8 6 Sudeste 10 Sudeste 0 929.1 0.1 62
2017-08-24 06:00:00 15.6 6 Sur 9 Sur 0 929 0 56
2017-08-24 05:00:00 16.7 5 Sur 8 Sudeste 0 928.9 -0.5 53
2017-08-24 04:00:00 17.5 3 Sur 11 Sudeste 0 929 -0.5 51
2017-08-24 03:00:00 18.3 5 Sudeste 9 Sudeste 0 929 -0.4 48
2017-08-24 02:00:00 19.9 7 Sudeste 14 Sudeste 0 929.4 0.3 43
2017-08-24 01:00:00 21 8 Sudeste 22 Sudeste 0 929.5 0.9 40
2017-08-24 00:00:00 23 15 Sur 26 Sur 0 929.4 1.8 36
2017-08-23 23:00:00 23.8 11 Sur 18 Sur 0 929.1 2.1 28
2017-08-23 22:00:00 25.5 7 Sudeste 19 Sur 0 928.6 1.7 22
2017-08-23 21:00:00 27.6 10 Sur 31 Sudeste 0 927.6 0.7 20
2017-08-23 20:00:00 30.5 17 Sur 29 Sudeste 0 927 0 18
2017-08-23 19:00:00 34.5 17 Sudeste 33 Sudeste 0 926.9 -0.5 17
2017-08-23 18:00:00 36.7 18 Sudeste 32 Sudeste 0 926.9 -0.8 16
2017-08-23 17:00:00 37.4 14 Sudeste 29 Sudeste 0 927 -1.2 16
2017-08-23 16:00:00 37 17 Sudeste 31 Sudeste 0 927.4 -1.5 16
2017-08-23 15:00:00 36.2 14 Este 36 Sudeste 0 927.7 -1.5 16
2017-08-23 14:00:00 34 6 Oeste 14 Oeste 0 928.2 -1.1 24
2017-08-23 13:00:00 31.5 5 Noroeste 13 Noroeste 0 928.9 -0.1 28
2017-08-23 12:00:00 28.2 3 Noroeste 10 Norte 0 929.2 0.2 35
2017-08-23 11:00:00 24.2 6 Norte 14 Norte 0 929.3 0.4 47
2017-08-23 10:00:00 21.2 5 Noroeste 9 Noroeste 0 929 0.6 54
2017-08-23 09:00:00 17.2 5 Sudeste 9 Sur 0 929 0.7 72
2017-08-23 08:00:00 15.3 6 Sur 8 Sur 0 928.9 0.2 76
2017-08-23 07:00:00 16.1 5 Sudeste 11 Sur 0 928.4 -0.3 74
2017-08-23 06:00:00 16.4 8 Sur 10 Sur 0 928.3 -0.7 71
2017-08-23 05:00:00 17.7 3 Sudeste 7 Sur 0 928.7 -0.7 65
2017-08-23 04:00:00 18.5 7 Sudeste 12 Sudeste 0 928.7 -0.6 64
2017-08-23 03:00:00 19.3 8 Sur 11 Sur 0 929 -0.3 61
2017-08-23 02:00:00 19.8 6 Sur 8 Sur 0 929.4 0.6 59
2017-08-23 01:00:00 20.6 3 Este 9 Sudeste 0 929.3 1.2 60
2017-08-23 00:00:00 22 4 Sudeste 23 Sur 0 929.3 2 55
2017-08-22 23:00:00 23.3 13 Sur 23 Sudeste 0 928.8 1.9 52
2017-08-22 22:00:00 24.5 11 Sudeste 31 Sudeste 0 928.1 1.3 49
2017-08-22 21:00:00 26.3 19 Sudeste 32 Sudeste 0 927.3 0.2 44
2017-08-22 20:00:00 29.9 18 Sudeste 34 Sudeste 0 926.9 -0.4 36
2017-08-22 19:00:00 33.8 17 Sudeste 31 Sudeste 0 926.8 -1 27
2017-08-22 18:00:00 35.8 15 Sudeste 31 Sudeste 0 927.1 -1.4 22
2017-08-22 17:00:00 36.3 17 Sudeste 33 Sudeste 0 927.3 -1.8 20
2017-08-22 16:00:00 35.8 19 Sudeste 33 Sur 0 927.8 -2.2 21
2017-08-22 15:00:00 34.8 17 Sur 30 Sudeste 0 928.5 -2.1 22
2017-08-22 14:00:00 33.6 13 Sur 25 Sur 0 929.1 -1.7 24
2017-08-22 13:00:00 31.3 13 Sudeste 24 Sur 0 930 -0.7 29
2017-08-22 12:00:00 28.4 8 Sur 17 Sudeste 0 930.6 0 38
2017-08-22 11:00:00 24.4 8 Sudeste 18 Sudeste 0 930.8 0.5 55
2017-08-22 10:00:00 20.9 7 Sudeste 12 Sudeste 0 930.7 0.4 75
2017-08-22 09:00:00 17.7 4 Sudeste 10 Sudeste 0 930.6 0.4 91
2017-08-22 08:00:00 16 8 Sudeste 10 Sudeste 0 930.3 -0.1 91
2017-08-22 07:00:00 16.6 5 Sudeste 9 Sudeste 0 930.3 -0.2 90
2017-08-22 06:00:00 17.2 6 Sudeste 12 Sur 0 930.2 -0.4 89
2017-08-22 05:00:00 17.9 5 Sur 7 Sur 0 930.4 -0.5 88
2017-08-22 04:00:00 18.8 5 Sudeste 13 Sudeste 0 930.5 -0.4 86
2017-08-22 03:00:00 19.6 9 Sudeste 16 Sur 0 930.6 0 84
2017-08-22 02:00:00 20.2 8 Sur 20 Sur 0 930.9 0.5 83
2017-08-22 01:00:00 20.6 12 Sudeste 26 Sudeste 0 930.9 1.3 81
2017-08-22 00:00:00 21.1 15 Sudeste 25 Sudeste 0 930.6 1.7 78